createdAt,value
2018-11-06T00:00:54.126Z,1001.53
2018-11-06T00:02:02.774Z,1001.56
2018-11-06T00:03:11.412Z,1001.6
2018-11-06T00:04:20.050Z,1001.6
2018-11-06T00:05:28.684Z,1001.64
2018-11-06T00:06:37.323Z,1001.62
2018-11-06T00:07:46.234Z,1001.63
2018-11-06T00:08:54.868Z,1001.54
2018-11-06T00:10:03.778Z,1001.55
2018-11-06T00:11:12.406Z,1001.55
2018-11-06T00:12:21.049Z,1001.59
2018-11-06T00:13:29.688Z,1001.57
2018-11-06T00:14:38.335Z,1001.55
2018-11-06T00:15:47.239Z,1001.52
2018-11-06T00:16:55.871Z,1001.54
2018-11-06T00:18:04.513Z,1001.57
2018-11-06T00:19:13.159Z,1001.57
2018-11-06T00:20:22.078Z,1001.61
2018-11-06T00:21:30.713Z,1001.62
2018-11-06T00:22:39.355Z,1001.61
2018-11-06T00:23:47.985Z,1001.67
2018-11-06T00:24:56.633Z,1001.65
2018-11-06T00:26:05.265Z,1001.65
2018-11-06T00:27:13.908Z,1001.64
2018-11-06T00:28:22.542Z,1001.68
2018-11-06T00:29:31.452Z,1001.72
2018-11-06T00:30:40.359Z,1001.69
2018-11-06T00:31:48.999Z,1001.74
2018-11-06T00:32:57.899Z,1001.71
2018-11-06T00:34:06.557Z,1001.7
2018-11-06T00:35:15.190Z,1001.72
2018-11-06T00:36:23.834Z,1001.69
2018-11-06T00:37:32.469Z,1001.68
2018-11-06T00:38:41.099Z,1001.65
2018-11-06T00:39:49.744Z,1001.61
2018-11-06T00:40:58.377Z,1001.58
2018-11-06T00:42:07.025Z,1001.61
2018-11-06T00:43:15.653Z,1001.63
2018-11-06T00:44:24.297Z,1001.65
2018-11-06T00:45:32.930Z,1001.68
2018-11-06T00:46:41.843Z,1001.68
2018-11-06T00:47:50.470Z,1001.73
2018-11-06T00:48:59.111Z,1001.7
2018-11-06T00:50:07.747Z,1001.71
2018-11-06T00:51:16.679Z,1001.7
2018-11-06T00:52:25.312Z,1001.71
2018-11-06T00:53:33.946Z,1001.72
2018-11-06T00:54:42.585Z,1001.69
2018-11-06T00:55:51.223Z,1001.65
2018-11-06T00:56:59.872Z,1001.66
2018-11-06T00:58:08.506Z,1001.65
2018-11-06T00:59:17.148Z,1001.67
2018-11-06T01:00:25.777Z,1001.67
2018-11-06T01:01:34.425Z,1001.66
2018-11-06T01:02:43.324Z,1001.67
2018-11-06T01:03:51.967Z,1001.64
2018-11-06T01:05:00.599Z,1001.62
2018-11-06T01:06:09.242Z,1001.6
2018-11-06T01:07:17.877Z,1001.64
2018-11-06T01:08:27.049Z,1001.62
2018-11-06T01:09:35.680Z,1001.64
2018-11-06T01:10:44.323Z,1001.71
2018-11-06T01:11:53.225Z,1001.73
2018-11-06T01:13:01.875Z,1001.74
2018-11-06T01:14:10.517Z,1001.76
2018-11-06T01:15:19.155Z,1001.78
2018-11-06T01:16:27.788Z,1001.8
2018-11-06T01:17:36.425Z,1001.78
2018-11-06T01:18:45.336Z,1001.77
2018-11-06T01:19:54.225Z,1001.78
2018-11-06T01:21:02.863Z,1001.77
2018-11-06T01:22:11.505Z,1001.78
2018-11-06T01:23:20.675Z,1001.8
2018-11-06T01:24:29.572Z,1001.79
2018-11-06T01:25:38.213Z,1001.77
2018-11-06T01:26:46.850Z,1001.78
2018-11-06T01:27:55.499Z,1001.79
2018-11-06T01:29:04.398Z,1001.78
2018-11-06T01:30:13.036Z,1001.74
2018-11-06T01:31:21.940Z,1001.75
2018-11-06T01:32:30.576Z,1001.77
2018-11-06T01:33:39.218Z,1001.78
2018-11-06T01:34:48.121Z,1001.83
2018-11-06T01:35:56.760Z,1001.79
2018-11-06T01:37:05.393Z,1001.86
2018-11-06T01:38:14.036Z,1001.86
2018-11-06T01:39:22.674Z,1001.86
2018-11-06T01:40:31.311Z,1001.86
2018-11-06T01:41:39.945Z,1001.84
2018-11-06T01:42:48.593Z,1001.8
2018-11-06T01:43:57.229Z,1001.8
2018-11-06T01:45:05.872Z,1001.79
2018-11-06T01:46:14.504Z,1001.74
2018-11-06T01:47:23.155Z,1001.8
2018-11-06T01:48:31.793Z,1001.8
2018-11-06T01:49:40.427Z,1001.75
2018-11-06T01:50:49.069Z,1001.75
2018-11-06T01:51:57.703Z,1001.72
2018-11-06T01:53:06.338Z,1001.68
2018-11-06T01:54:14.977Z,1001.69
2018-11-06T01:55:23.617Z,1001.68
2018-11-06T01:56:32.252Z,1001.69
2018-11-06T01:57:40.892Z,1001.72
2018-11-06T01:58:49.801Z,1001.7
2018-11-06T01:59:58.439Z,1001.73
2018-11-06T02:01:07.074Z,1001.71
2018-11-06T02:02:15.715Z,1001.72
2018-11-06T02:03:24.352Z,1001.71
2018-11-06T02:04:32.985Z,1001.66
2018-11-06T02:05:41.671Z,1001.68
2018-11-06T02:06:50.795Z,1001.66
2018-11-06T02:07:59.695Z,1001.69
2018-11-06T02:09:08.331Z,1001.67
2018-11-06T02:10:16.966Z,1001.65
2018-11-06T02:11:25.608Z,1001.67
2018-11-06T02:12:34.244Z,1001.68
2018-11-06T02:13:42.888Z,1001.7
2018-11-06T02:14:51.520Z,1001.69
2018-11-06T02:16:00.162Z,1001.71
2018-11-06T02:17:08.806Z,1001.69
2018-11-06T02:18:17.443Z,1001.69
2018-11-06T02:19:26.334Z,1001.68
2018-11-06T02:20:34.975Z,1001.66
2018-11-06T02:21:43.886Z,1001.67
2018-11-06T02:22:52.529Z,1001.66
2018-11-06T02:24:01.168Z,1001.63
2018-11-06T02:25:09.813Z,1001.61
2018-11-06T02:26:18.717Z,1001.61
2018-11-06T02:27:27.354Z,1001.57
2018-11-06T02:28:35.999Z,1001.6
2018-11-06T02:29:44.638Z,1001.64
2018-11-06T02:30:53.539Z,1001.6
2018-11-06T02:32:02.174Z,1001.63
2018-11-06T02:33:11.204Z,1001.63
2018-11-06T02:34:19.843Z,1001.63
2018-11-06T02:35:28.480Z,1001.66
2018-11-06T02:36:37.113Z,1001.71
2018-11-06T02:37:45.756Z,1001.72
2018-11-06T02:38:54.662Z,1001.75
2018-11-06T02:40:03.300Z,1001.75
2018-11-06T02:41:11.935Z,1001.79
2018-11-06T02:42:20.838Z,1001.75
2018-11-06T02:43:29.479Z,1001.75
2018-11-06T02:44:38.119Z,1001.76
2018-11-06T02:45:47.036Z,1001.74
2018-11-06T02:46:55.951Z,1001.71
2018-11-06T02:48:04.589Z,1001.73
2018-11-06T02:49:13.228Z,1001.72
2018-11-06T02:50:21.868Z,1001.72
2018-11-06T02:51:30.509Z,1001.69
2018-11-06T02:52:39.148Z,1001.69
2018-11-06T02:53:47.785Z,1001.69
2018-11-06T02:54:56.426Z,1001.68
2018-11-06T02:56:05.117Z,1001.66
2018-11-06T02:57:13.703Z,1001.64
2018-11-06T02:58:22.337Z,1001.66
2018-11-06T02:59:30.982Z,1001.69
2018-11-06T03:00:39.880Z,1001.71
2018-11-06T03:01:48.518Z,1001.71
2018-11-06T03:02:57.417Z,1001.67
2018-11-06T03:04:06.328Z,1001.7
2018-11-06T03:05:15.239Z,1001.68
2018-11-06T03:06:24.136Z,1001.66
2018-11-06T03:07:33.312Z,1001.62
2018-11-06T03:08:41.940Z,1001.68
2018-11-06T03:09:50.589Z,1001.68
2018-11-06T03:10:59.503Z,1001.68
2018-11-06T03:12:08.150Z,1001.67
2018-11-06T03:13:17.037Z,1001.68
2018-11-06T03:14:25.947Z,1001.72
2018-11-06T03:15:34.583Z,1001.73
2018-11-06T03:16:43.255Z,1001.75
2018-11-06T03:17:51.853Z,1001.7
2018-11-06T03:19:00.492Z,1001.69
2018-11-06T03:20:09.135Z,1001.66
2018-11-06T03:21:18.046Z,1001.7
2018-11-06T03:22:27.226Z,1001.75
2018-11-06T03:23:35.861Z,1001.76
2018-11-06T03:24:44.507Z,1001.78
2018-11-06T03:25:53.151Z,1001.8
2018-11-06T03:27:02.471Z,1001.76
2018-11-06T03:28:10.955Z,1001.77
2018-11-06T03:29:19.601Z,1001.73
2018-11-06T03:30:28.247Z,1001.77
2018-11-06T03:31:37.432Z,1001.74
2018-11-06T03:32:46.617Z,1001.71
2018-11-06T03:33:55.262Z,1001.73
2018-11-06T03:35:03.901Z,1001.76
2018-11-06T03:36:12.548Z,1001.75
2018-11-06T03:37:21.452Z,1001.74
2018-11-06T03:38:30.085Z,1001.78
2018-11-06T03:39:38.722Z,1001.82
2018-11-06T03:40:47.360Z,1001.81
2018-11-06T03:41:56.005Z,1001.79
2018-11-06T03:43:04.641Z,1001.78
2018-11-06T03:44:13.559Z,1001.77
2018-11-06T03:45:22.188Z,1001.74
2018-11-06T03:46:30.834Z,1001.76
2018-11-06T03:47:39.467Z,1001.74
2018-11-06T03:48:48.110Z,1001.7
2018-11-06T03:49:57.021Z,1001.71
2018-11-06T03:51:05.672Z,1001.71
2018-11-06T03:52:14.567Z,1001.72
2018-11-06T03:53:23.209Z,1001.73
2018-11-06T03:54:31.836Z,1001.74
2018-11-06T03:55:40.747Z,1001.74
2018-11-06T03:56:49.664Z,1001.74
2018-11-06T03:57:58.303Z,1001.75
2018-11-06T03:59:06.946Z,1001.74
2018-11-06T04:00:15.574Z,1001.73
2018-11-06T04:01:24.214Z,1001.7
2018-11-06T04:02:32.852Z,1001.7
2018-11-06T04:03:41.495Z,1001.73
2018-11-06T04:04:50.132Z,1001.71
2018-11-06T04:05:58.772Z,1001.74
2018-11-06T04:07:07.415Z,1001.72
2018-11-06T04:08:16.064Z,1001.75
2018-11-06T04:09:24.703Z,1001.77
2018-11-06T04:10:33.606Z,1001.81
2018-11-06T04:11:42.511Z,1001.78
2018-11-06T04:12:51.429Z,1001.75
2018-11-06T04:14:00.336Z,1001.75
2018-11-06T04:15:09.239Z,1001.78
2018-11-06T04:16:17.873Z,1001.8
2018-11-06T04:17:26.513Z,1001.82
2018-11-06T04:18:35.156Z,1001.8
2018-11-06T04:19:43.804Z,1001.83
2018-11-06T04:20:52.443Z,1001.83
2018-11-06T04:22:01.345Z,1001.81
2018-11-06T04:23:10.512Z,1001.85
2018-11-06T04:24:19.146Z,1001.82
2018-11-06T04:25:27.793Z,1001.86
2018-11-06T04:26:36.428Z,1001.84
2018-11-06T04:27:45.332Z,1001.83
2018-11-06T04:28:53.970Z,1001.79
2018-11-06T04:30:02.618Z,1001.79
2018-11-06T04:31:11.247Z,1001.8
2018-11-06T04:32:19.889Z,1001.82
2018-11-06T04:33:28.527Z,1001.84
2018-11-06T04:34:37.432Z,1001.85
2018-11-06T04:35:46.341Z,1001.83
2018-11-06T04:36:55.240Z,1001.83
2018-11-06T04:38:03.884Z,1001.88
2018-11-06T04:39:13.044Z,1001.89
2018-11-06T04:40:21.686Z,1001.86
2018-11-06T04:41:30.319Z,1001.88
2018-11-06T04:42:38.958Z,1001.86
2018-11-06T04:43:47.857Z,1001.85
2018-11-06T04:44:56.497Z,1001.8
2018-11-06T04:46:05.132Z,1001.84
2018-11-06T04:47:13.773Z,1001.84
2018-11-06T04:48:22.411Z,1001.88
2018-11-06T04:49:31.065Z,1001.89
2018-11-06T04:50:39.696Z,1001.92
2018-11-06T04:51:48.334Z,1001.91
2018-11-06T04:52:57.238Z,1001.88
2018-11-06T04:54:05.878Z,1001.86
2018-11-06T04:55:14.521Z,1001.89
2018-11-06T04:56:23.158Z,1001.88
2018-11-06T04:57:32.321Z,1001.89
2018-11-06T04:58:40.961Z,1001.87
2018-11-06T04:59:49.867Z,1001.85
2018-11-06T05:00:58.501Z,1001.92
2018-11-06T05:02:07.321Z,1001.92
2018-11-06T05:03:15.770Z,1001.92
2018-11-06T05:04:24.417Z,1001.9
2018-11-06T05:05:33.059Z,1001.88
2018-11-06T05:06:41.760Z,1001.88
2018-11-06T05:07:50.331Z,1001.85
2018-11-06T05:08:58.968Z,1001.86
2018-11-06T05:10:07.612Z,1001.88
2018-11-06T05:11:16.252Z,1001.84
2018-11-06T05:12:24.892Z,1001.83
2018-11-06T05:13:33.787Z,1001.81
2018-11-06T05:14:42.432Z,1001.81
2018-11-06T05:15:51.334Z,1001.81
2018-11-06T05:16:59.982Z,1001.81
2018-11-06T05:18:08.874Z,1001.81
2018-11-06T05:19:17.719Z,1001.84
2018-11-06T05:20:26.611Z,1001.86
2018-11-06T05:21:35.261Z,1001.85
2018-11-06T05:22:44.158Z,1001.85
2018-11-06T05:23:52.797Z,1001.88
2018-11-06T05:25:01.443Z,1001.86
2018-11-06T05:26:10.618Z,1001.85
2018-11-06T05:27:19.282Z,1001.9
2018-11-06T05:28:27.890Z,1001.93
2018-11-06T05:29:36.523Z,1001.96
2018-11-06T05:30:45.163Z,1001.94
2018-11-06T05:31:53.809Z,1001.98
2018-11-06T05:33:02.869Z,1001.96
2018-11-06T05:34:11.717Z,1001.98
2018-11-06T05:35:20.607Z,1001.96
2018-11-06T05:36:29.252Z,1001.95
2018-11-06T05:37:37.884Z,1001.99
2018-11-06T05:38:46.532Z,1001.99
2018-11-06T05:39:55.161Z,1001.99
2018-11-06T05:41:04.328Z,1001.98
2018-11-06T05:42:12.974Z,1002
2018-11-06T05:43:21.868Z,1002.05
2018-11-06T05:44:30.496Z,1002.02
2018-11-06T05:45:39.249Z,1002.06
2018-11-06T05:46:47.778Z,1002.08
2018-11-06T05:47:56.417Z,1002.04
2018-11-06T05:49:05.057Z,1002.08
2018-11-06T05:50:13.685Z,1002.07
2018-11-06T05:51:22.327Z,1002.07
2018-11-06T05:52:30.958Z,1002.09
2018-11-06T05:53:39.604Z,1002.1
2018-11-06T05:54:48.232Z,1002.01
2018-11-06T05:55:56.882Z,1002
2018-11-06T05:57:05.516Z,1002.05
2018-11-06T05:58:14.152Z,1002
2018-11-06T05:59:22.801Z,1002.02
2018-11-06T06:00:31.477Z,1002.07
2018-11-06T06:01:40.453Z,1002.06
2018-11-06T06:02:49.080Z,1002.1
2018-11-06T06:03:57.721Z,1002.1
2018-11-06T06:05:06.364Z,1002.12
2018-11-06T06:06:15.001Z,1002.1
2018-11-06T06:07:23.649Z,1002.1
2018-11-06T06:08:32.533Z,1002.11
2018-11-06T06:09:41.176Z,1002.16
2018-11-06T06:10:49.814Z,1002.18
2018-11-06T06:11:58.454Z,1002.23
2018-11-06T06:13:07.084Z,1002.22
2018-11-06T06:14:15.726Z,1002.26
2018-11-06T06:15:24.360Z,1002.3
2018-11-06T06:16:33.055Z,1002.3
2018-11-06T06:17:41.627Z,1002.29
2018-11-06T06:18:50.265Z,1002.32
2018-11-06T06:19:58.900Z,1002.33
2018-11-06T06:21:07.550Z,1002.34
2018-11-06T06:22:16.191Z,1002.41
2018-11-06T06:23:24.819Z,1002.4
2018-11-06T06:24:33.454Z,1002.43
2018-11-06T06:25:42.088Z,1002.4
2018-11-06T06:26:50.734Z,1002.39
2018-11-06T06:27:59.629Z,1002.4
2018-11-06T06:29:08.533Z,1002.38
2018-11-06T06:30:17.164Z,1002.32
2018-11-06T06:31:25.809Z,1002.36
2018-11-06T06:32:34.700Z,1002.34
2018-11-06T06:33:43.348Z,1002.38
2018-11-06T06:34:52.280Z,1002.37
2018-11-06T06:36:01.491Z,1002.42
2018-11-06T06:37:10.388Z,1002.46
2018-11-06T06:38:19.029Z,1002.52
2018-11-06T06:39:27.659Z,1002.53
2018-11-06T06:40:36.299Z,1002.55
2018-11-06T06:41:45.285Z,1002.56
2018-11-06T06:42:53.925Z,1002.6
2018-11-06T06:44:02.562Z,1002.57
2018-11-06T06:45:11.189Z,1002.56
2018-11-06T06:46:19.893Z,1002.57
2018-11-06T06:47:29.764Z,1002.59
2018-11-06T06:48:38.411Z,1002.56
2018-11-06T06:49:47.041Z,1002.55
2018-11-06T06:50:55.683Z,1002.55
2018-11-06T06:52:04.315Z,1002.57
2018-11-06T06:53:12.960Z,1002.57
2018-11-06T06:54:21.970Z,1002.57
2018-11-06T06:55:30.229Z,1002.56
2018-11-06T06:56:38.868Z,1002.51
2018-11-06T06:57:47.510Z,1002.48
2018-11-06T06:58:56.145Z,1002.4
2018-11-06T07:00:04.783Z,1002.39
2018-11-06T07:01:13.417Z,1002.4
2018-11-06T07:02:22.087Z,1002.41
2018-11-06T07:03:31.004Z,1002.41
2018-11-06T07:04:39.642Z,1002.42
2018-11-06T07:05:48.550Z,1002.48
2018-11-06T07:06:57.181Z,1002.52
2018-11-06T07:08:05.823Z,1002.49
2018-11-06T07:09:14.725Z,1002.47
2018-11-06T07:10:23.362Z,1002.47
2018-11-06T07:11:32.007Z,1002.47
2018-11-06T07:12:40.677Z,1002.44
2018-11-06T07:13:49.284Z,1002.47
2018-11-06T07:14:57.920Z,1002.45
2018-11-06T07:16:06.567Z,1002.53
2018-11-06T07:17:15.205Z,1002.55
2018-11-06T07:18:23.887Z,1002.53
2018-11-06T07:19:32.481Z,1002.51
2018-11-06T07:20:41.123Z,1002.5
2018-11-06T07:21:49.756Z,1002.53
2018-11-06T07:22:58.393Z,1002.57
2018-11-06T07:24:07.031Z,1002.57
2018-11-06T07:25:15.674Z,1002.59
2018-11-06T07:26:24.313Z,1002.64
2018-11-06T07:27:32.950Z,1002.66
2018-11-06T07:28:41.618Z,1002.67
2018-11-06T07:29:50.565Z,1002.66
2018-11-06T07:30:59.198Z,1002.66
2018-11-06T07:32:07.835Z,1002.73
2018-11-06T07:33:16.472Z,1002.69
2018-11-06T07:34:25.177Z,1002.76
2018-11-06T07:35:34.043Z,1002.8
2018-11-06T07:36:42.398Z,1002.78
2018-11-06T07:37:51.293Z,1002.75
2018-11-06T07:38:59.937Z,1002.76
2018-11-06T07:40:08.574Z,1002.76
2018-11-06T07:41:17.611Z,1002.67
2018-11-06T07:42:26.110Z,1002.72
2018-11-06T07:43:37.150Z,1002.69
2018-11-06T07:44:45.796Z,1002.72
2018-11-06T07:45:54.431Z,1002.7
2018-11-06T07:47:03.075Z,1002.71
2018-11-06T07:48:11.709Z,1002.71
2018-11-06T07:49:20.351Z,1002.76
2018-11-06T07:50:29.042Z,1002.77
2018-11-06T07:51:37.628Z,1002.8
2018-11-06T07:52:46.266Z,1002.82
2018-11-06T07:53:54.905Z,1002.84
2018-11-06T07:55:03.805Z,1002.88
2018-11-06T07:56:12.547Z,1002.88
2018-11-06T07:57:21.089Z,1002.92
2018-11-06T07:58:29.719Z,1002.89
2018-11-06T07:59:38.358Z,1002.89
2018-11-06T08:00:46.997Z,1002.85
2018-11-06T08:01:55.641Z,1002.86
2018-11-06T08:03:04.276Z,1002.88
2018-11-06T08:04:12.989Z,1002.91
2018-11-06T08:05:21.550Z,1002.88
2018-11-06T08:06:30.360Z,1002.86
2018-11-06T08:07:39.090Z,1002.87
2018-11-06T08:08:47.730Z,1002.89
2018-11-06T08:09:56.369Z,1002.86
2018-11-06T08:11:05.278Z,1002.88
2018-11-06T08:12:13.912Z,1002.87
2018-11-06T08:13:22.552Z,1002.86
2018-11-06T08:14:31.248Z,1002.88
2018-11-06T08:15:40.249Z,1002.88
2018-11-06T08:16:49.163Z,1002.88
2018-11-06T08:17:57.805Z,1002.93
2018-11-06T08:19:06.442Z,1002.95
2018-11-06T08:20:15.078Z,1002.9
2018-11-06T08:21:24.004Z,1002.96
2018-11-06T08:22:32.640Z,1002.94
2018-11-06T08:23:41.309Z,1002.95
2018-11-06T08:24:50.300Z,1002.96
2018-11-06T08:25:58.948Z,1002.93
2018-11-06T08:27:07.587Z,1002.97
2018-11-06T08:28:16.229Z,1002.97
2018-11-06T08:29:24.873Z,1002.97
2018-11-06T08:30:33.602Z,1002.95
2018-11-06T08:31:42.608Z,1003
2018-11-06T08:32:52.069Z,1003
2018-11-06T08:34:00.339Z,1003.02
2018-11-06T08:35:08.978Z,1003.02
2018-11-06T08:36:17.882Z,1003.03
2018-11-06T08:37:26.519Z,1003.01
2018-11-06T08:38:35.161Z,1002.99
2018-11-06T08:39:43.796Z,1003.03
2018-11-06T08:40:52.436Z,1003
2018-11-06T08:42:01.077Z,1002.99
2018-11-06T08:43:09.717Z,1002.96
2018-11-06T08:44:18.355Z,1002.97
2018-11-06T08:45:27.535Z,1002.99
2018-11-06T08:46:36.439Z,1002.99
2018-11-06T08:47:45.083Z,1002.97
2018-11-06T08:48:53.981Z,1002.95
2018-11-06T08:50:02.621Z,1002.94
2018-11-06T08:51:11.532Z,1002.95
2018-11-06T08:52:20.171Z,1002.95
2018-11-06T08:53:28.812Z,1002.92
2018-11-06T08:54:37.553Z,1002.93
2018-11-06T08:55:46.091Z,1002.9
2018-11-06T08:56:54.722Z,1002.9
2018-11-06T08:58:03.368Z,1002.92
2018-11-06T08:59:12.005Z,1002.94
2018-11-06T09:00:20.647Z,1002.92
2018-11-06T09:01:29.278Z,1002.92
2018-11-06T09:02:38.037Z,1002.93
2018-11-06T09:03:46.566Z,1002.93
2018-11-06T09:04:55.735Z,1002.92
2018-11-06T09:06:04.673Z,1002.97
2018-11-06T09:07:13.317Z,1002.92
2018-11-06T09:08:21.961Z,1002.99
2018-11-06T09:09:30.880Z,1002.97
2018-11-06T09:10:39.522Z,1002.96
2018-11-06T09:11:48.152Z,1002.95
2018-11-06T09:12:56.800Z,1002.94
2018-11-06T09:14:05.432Z,1002.93
2018-11-06T09:15:14.080Z,1002.94
2018-11-06T09:16:22.713Z,1002.96
2018-11-06T09:17:31.358Z,1002.95
2018-11-06T09:18:39.999Z,1002.94
2018-11-06T09:19:48.908Z,1002.95
2018-11-06T09:20:57.539Z,1002.96
2018-11-06T09:22:06.181Z,1002.95
2018-11-06T09:23:14.822Z,1002.87
2018-11-06T09:24:23.470Z,1002.88
2018-11-06T09:25:32.109Z,1002.89
2018-11-06T09:26:40.741Z,1002.92
2018-11-06T09:27:49.651Z,1002.87
2018-11-06T09:28:58.286Z,1002.86
2018-11-06T09:30:07.205Z,1002.87
2018-11-06T09:31:15.840Z,1002.88
2018-11-06T09:32:24.483Z,1002.92
2018-11-06T09:33:33.114Z,1002.97
2018-11-06T09:34:41.769Z,1002.93
2018-11-06T09:35:50.406Z,1002.96
2018-11-06T09:36:59.054Z,1002.93
2018-11-06T09:38:07.685Z,1002.91
2018-11-06T09:39:16.337Z,1002.9
2018-11-06T09:40:24.975Z,1002.91
2018-11-06T09:41:33.758Z,1002.88
2018-11-06T09:42:42.528Z,1002.9
2018-11-06T09:43:51.170Z,1002.91
2018-11-06T09:44:59.860Z,1002.92
2018-11-06T09:46:08.458Z,1002.93
2018-11-06T09:47:17.100Z,1002.92
2018-11-06T09:48:25.731Z,1002.93
2018-11-06T09:49:34.380Z,1002.89
2018-11-06T09:50:43.016Z,1002.88
2018-11-06T09:51:51.709Z,1002.9
2018-11-06T09:53:00.296Z,1002.85
2018-11-06T09:54:08.933Z,1002.84
2018-11-06T09:55:17.579Z,1002.8
2018-11-06T09:56:26.211Z,1002.81
2018-11-06T09:57:34.932Z,1002.76
2018-11-06T09:58:43.653Z,1002.77
2018-11-06T09:59:52.639Z,1002.74
2018-11-06T10:01:01.760Z,1002.81
2018-11-06T10:02:10.408Z,1002.76
2018-11-06T10:03:19.629Z,1002.79
2018-11-06T10:04:28.273Z,1002.79
2018-11-06T10:05:37.446Z,1002.78
2018-11-06T10:06:46.209Z,1002.75
2018-11-06T10:07:55.336Z,1002.74
2018-11-06T10:09:04.741Z,1002.71
2018-11-06T10:10:13.634Z,1002.69
2018-11-06T10:11:22.268Z,1002.66
2018-11-06T10:12:31.276Z,1002.7
2018-11-06T10:13:39.913Z,1002.71
2018-11-06T10:14:48.563Z,1002.72
2018-11-06T10:15:57.200Z,1002.75
2018-11-06T10:17:06.106Z,1002.79
2018-11-06T10:18:14.747Z,1002.77
2018-11-06T10:19:23.400Z,1002.8
2018-11-06T10:20:32.040Z,1002.84
2018-11-06T10:21:40.674Z,1002.81
2018-11-06T10:22:49.314Z,1002.85
2018-11-06T10:23:57.955Z,1002.82
2018-11-06T10:25:06.614Z,1002.88
2018-11-06T10:26:15.256Z,1002.87
2018-11-06T10:27:24.167Z,1002.89
2018-11-06T10:28:33.333Z,1002.87
2018-11-06T10:29:42.017Z,1002.88
2018-11-06T10:30:50.977Z,1002.85
2018-11-06T10:31:59.537Z,1002.78
2018-11-06T10:33:08.173Z,1002.81
2018-11-06T10:34:16.824Z,1002.77
2018-11-06T10:35:25.468Z,1002.78
2018-11-06T10:36:34.115Z,1002.78
2018-11-06T10:37:43.008Z,1002.78
2018-11-06T10:38:51.967Z,1002.78
2018-11-06T10:40:00.611Z,1002.79
2018-11-06T10:41:09.254Z,1002.76
2018-11-06T10:42:17.900Z,1002.8
2018-11-06T10:43:26.535Z,1002.74
2018-11-06T10:44:35.182Z,1002.71
2018-11-06T10:45:43.821Z,1002.73
2018-11-06T10:46:52.472Z,1002.68
2018-11-06T10:48:01.107Z,1002.71
2018-11-06T10:49:09.757Z,1002.72
2018-11-06T10:50:18.755Z,1002.71
2018-11-06T10:51:27.403Z,1002.7
2018-11-06T10:52:36.039Z,1002.66
2018-11-06T10:53:44.685Z,1002.66
2018-11-06T10:54:53.329Z,1002.62
2018-11-06T10:56:02.616Z,1002.58
2018-11-06T10:57:11.418Z,1002.58
2018-11-06T10:58:21.093Z,1002.52
2018-11-06T10:59:29.737Z,1002.54
2018-11-06T11:00:40.738Z,1002.51
2018-11-06T11:01:50.063Z,1002.52
2018-11-06T11:02:58.966Z,1002.52
2018-11-06T11:04:07.929Z,1002.52
2018-11-06T11:05:16.950Z,1002.52
2018-11-06T11:06:25.863Z,1002.54
2018-11-06T11:07:34.506Z,1002.51
2018-11-06T11:08:43.151Z,1002.5
2018-11-06T11:09:51.789Z,1002.5
2018-11-06T11:11:00.441Z,1002.52
2018-11-06T11:12:09.080Z,1002.53
2018-11-06T11:13:17.774Z,1002.45
2018-11-06T11:14:26.364Z,1002.43
2018-11-06T11:15:35.010Z,1002.42
2018-11-06T11:16:43.652Z,1002.38
2018-11-06T11:17:52.565Z,1002.38
2018-11-06T11:19:01.210Z,1002.35
2018-11-06T11:20:09.901Z,1002.34
2018-11-06T11:21:18.497Z,1002.3
2018-11-06T11:22:27.140Z,1002.32
2018-11-06T11:23:35.788Z,1002.32
2018-11-06T11:24:44.426Z,1002.31
2018-11-06T11:25:53.339Z,1002.3
2018-11-06T11:27:02.247Z,1002.29
2018-11-06T11:28:11.158Z,1002.29
2018-11-06T11:29:19.794Z,1002.3
2018-11-06T11:30:28.439Z,1002.25
2018-11-06T11:31:37.079Z,1002.26
2018-11-06T11:32:45.739Z,1002.22
2018-11-06T11:33:54.661Z,1002.23
2018-11-06T11:35:03.620Z,1002.22
2018-11-06T11:36:12.263Z,1002.21
2018-11-06T11:37:20.902Z,1002.22
2018-11-06T11:38:29.548Z,1002.21
2018-11-06T11:39:38.191Z,1002.22
2018-11-06T11:40:46.830Z,1002.2
2018-11-06T11:41:55.468Z,1002.18
2018-11-06T11:43:04.393Z,1002.2
2018-11-06T11:44:13.041Z,1002.17
2018-11-06T11:45:21.980Z,1002.19
2018-11-06T11:46:30.635Z,1002.16
2018-11-06T11:47:39.284Z,1002.15
2018-11-06T11:48:47.923Z,1002.17
2018-11-06T11:49:56.572Z,1002.12
2018-11-06T11:51:05.217Z,1002.13
2018-11-06T11:52:13.867Z,1002.11
2018-11-06T11:53:22.516Z,1002.12
2018-11-06T11:54:31.162Z,1002.07
2018-11-06T11:55:39.808Z,1002.1
2018-11-06T11:56:48.444Z,1002.11
2018-11-06T11:57:57.352Z,1002.11
2018-11-06T11:59:05.996Z,1002.15
2018-11-06T12:00:14.776Z,1002.11
2018-11-06T12:01:23.770Z,1002.16
2018-11-06T12:02:32.425Z,1002.13
2018-11-06T12:03:41.583Z,1002.12
2018-11-06T12:04:50.502Z,1002.16
2018-11-06T12:05:59.400Z,1002.14
2018-11-06T12:07:08.044Z,1002.14
2018-11-06T12:08:16.685Z,1002.13
2018-11-06T12:09:25.337Z,1002.12
2018-11-06T12:10:33.978Z,1002.13
2018-11-06T12:11:42.889Z,1002.11
2018-11-06T12:12:51.800Z,1002.09
2018-11-06T12:14:00.702Z,1002.06
2018-11-06T12:15:09.622Z,1002.04
2018-11-06T12:16:18.275Z,1002.01
2018-11-06T12:17:26.961Z,1002
2018-11-06T12:18:36.198Z,1001.96
2018-11-06T12:19:44.861Z,1001.94
2018-11-06T12:20:53.764Z,1001.96
2018-11-06T12:22:02.413Z,1001.91
2018-11-06T12:23:11.052Z,1001.91
2018-11-06T12:24:20.261Z,1001.93
2018-11-06T12:25:29.060Z,1001.9
2018-11-06T12:26:37.525Z,1001.94
2018-11-06T12:27:46.423Z,1001.89
2018-11-06T12:28:55.334Z,1001.9
2018-11-06T12:30:04.257Z,1001.92
2018-11-06T12:31:12.902Z,1001.89
2018-11-06T12:32:21.566Z,1001.86
2018-11-06T12:33:30.187Z,1001.84
2018-11-06T12:34:38.836Z,1001.83
2018-11-06T12:35:47.476Z,1001.83
2018-11-06T12:36:56.467Z,1001.79
2018-11-06T12:38:05.810Z,1001.81
2018-11-06T12:39:14.461Z,1001.8
2018-11-06T12:40:23.100Z,1001.83
2018-11-06T12:41:31.754Z,1001.82
2018-11-06T12:42:40.388Z,1001.78
2018-11-06T12:43:49.583Z,1001.78
2018-11-06T12:44:58.225Z,1001.78
2018-11-06T12:46:06.878Z,1001.75
2018-11-06T12:47:15.521Z,1001.72
2018-11-06T12:48:24.162Z,1001.7
2018-11-06T12:49:33.065Z,1001.77
2018-11-06T12:50:41.708Z,1001.74
2018-11-06T12:51:50.358Z,1001.77
2018-11-06T12:52:59.003Z,1001.76
2018-11-06T12:54:07.658Z,1001.73
2018-11-06T12:55:16.297Z,1001.72
2018-11-06T12:56:25.213Z,1001.71
2018-11-06T12:57:33.858Z,1001.66
2018-11-06T12:58:42.501Z,1001.64
2018-11-06T12:59:51.145Z,1001.63
2018-11-06T13:00:59.788Z,1001.6
2018-11-06T13:02:08.693Z,1001.6
2018-11-06T13:03:17.391Z,1001.59
2018-11-06T13:04:25.980Z,1001.55
2018-11-06T13:05:34.625Z,1001.59
2018-11-06T13:06:43.270Z,1001.55
2018-11-06T13:07:51.920Z,1001.55
2018-11-06T13:09:00.569Z,1001.53
2018-11-06T13:10:09.212Z,1001.53
2018-11-06T13:11:17.854Z,1001.55
2018-11-06T13:12:26.496Z,1001.57
2018-11-06T13:13:35.149Z,1001.55
2018-11-06T13:14:44.051Z,1001.53
2018-11-06T13:15:52.907Z,1001.53
2018-11-06T13:17:01.825Z,1001.51
2018-11-06T13:18:11.146Z,1001.48
2018-11-06T13:19:19.785Z,1001.44
2018-11-06T13:20:28.433Z,1001.47
2018-11-06T13:21:37.077Z,1001.46
2018-11-06T13:22:45.988Z,1001.43
2018-11-06T13:23:54.630Z,1001.44
2018-11-06T13:25:03.276Z,1001.39
2018-11-06T13:26:12.003Z,1001.37
2018-11-06T13:27:21.010Z,1001.37
2018-11-06T13:28:29.657Z,1001.36
2018-11-06T13:29:38.567Z,1001.34
2018-11-06T13:30:47.278Z,1001.37
2018-11-06T13:31:55.925Z,1001.33
2018-11-06T13:33:04.866Z,1001.38
2018-11-06T13:34:13.791Z,1001.33
2018-11-06T13:35:22.435Z,1001.34
2018-11-06T13:36:31.139Z,1001.36
2018-11-06T13:37:39.790Z,1001.38
2018-11-06T13:38:48.707Z,1001.35
2018-11-06T13:39:57.621Z,1001.35
2018-11-06T13:41:06.645Z,1001.33
2018-11-06T13:42:15.303Z,1001.37
2018-11-06T13:43:24.516Z,1001.36
2018-11-06T13:44:34.668Z,1001.38
2018-11-06T13:45:43.261Z,1001.36
2018-11-06T13:46:51.630Z,1001.39
2018-11-06T13:48:00.923Z,1001.4
2018-11-06T13:49:09.937Z,1001.37
2018-11-06T13:50:18.581Z,1001.38
2018-11-06T13:51:27.229Z,1001.42
2018-11-06T13:52:35.876Z,1001.38
2018-11-06T13:53:44.524Z,1001.43
2018-11-06T13:54:53.166Z,1001.42